This is the latest recevied weather packets stored in our database for station/object YC0ACE-13. If no packets are shown the sender has not sent any weather packets the latest 10 day(s).
| Time | Temp. | Humidity | Pressure | Rain* | Wind** | Luminosity | Snow |
|---|---|---|---|---|---|---|---|
| 1777888524 | 22.22° C | 96% | 1015.9 hPa | 145.29 mm | - | 2 W/m² | - |
| 1777888225 | 22.78° C | 95% | 1015.9 hPa | 137.41 mm | - | 2 W/m² | - |
| 1777887925 | 23.33° C | 95% | 1016.3 hPa | 107.95 mm | - | 2 W/m² | - |
| 1777887625 | 23.33° C | 95% | 1015.9 hPa | 83.31 mm | - | 2 W/m² | - |
| 1777887325 | 23.89° C | 94% | 1015.2 hPa | 99.06 mm | - | 2 W/m² | - |
| 1777887024 | 25° C | 94% | 1015.6 hPa | 92.96 mm | - | 2 W/m² | - |
| 1777886725 | 25° C | 93% | 1015.6 hPa | 37.85 mm | - | 2 W/m² | - |
| 1777886425 | 25.56° C | 92% | 1015.2 hPa | 8.89 mm | - | 1 W/m² | - |
| 1777886125 | 26.11° C | 91% | 1015.2 hPa | 1.27 mm | - | 1 W/m² | - |
| 1777885824 | 26.67° C | 90% | 1014.9 hPa | 7.87 mm | - | 1 W/m² | - |
| 1777885524 | 27.78° C | 87% | 1014.6 hPa | 9.65 mm | - | 3 W/m² | - |
| 1777885224 | 28.89° C | 84% | 1014.2 hPa | 4.83 mm | - | 5 W/m² | - |
| 1777884925 | 28.89° C | 82% | 1013.9 hPa | 0 mm | - | 6 W/m² | - |
| 1777884626 | 29.44° C | 80% | 1013.9 hPa | 0 mm | - | 8 W/m² | - |
| 1777884325 | 29.44° C | 79% | 1013.9 hPa | 0 mm | - | 19 W/m² | - |
| 1777884025 | 29.44° C | 79% | 1013.9 hPa | 0 mm | - | 46 W/m² | - |
| 1777883727 | 29.44° C | 79% | 1013.9 hPa | 0 mm | - | 63 W/m² | - |
| 1777883425 | 29.44° C | 78% | 1013.9 hPa | 0 mm | - | 75 W/m² | - |
| 1777883125 | 29.44° C | 79% | 1013.9 hPa | 0 mm | - | 72 W/m² | - |
| 1777882824 | 29.44° C | 79% | 1013.9 hPa | 0 mm | - | 64 W/m² | - |
| 1777882524 | 28.89° C | 80% | 1013.9 hPa | 0 mm | - | 80 W/m² | - |
| 1777882225 | 28.89° C | 79% | 1013.9 hPa | 0 mm | - | 115 W/m² | - |
| 1777881924 | 28.89° C | 81% | 1013.9 hPa | 0 mm | - | 118 W/m² | - |
| 1777881631 | 28.89° C | 80% | 1013.5 hPa | 0 mm | - | 130 W/m² | - |
| 1777881324 | 28.89° C | 81% | 1013.9 hPa | 0 mm | - | 136 W/m² | - |
* Rain latest hour (hover to see other rain measurements)
** Current wind speed in m/s (hover to see current wind gust speed)